METAR AND TAF INFORMATION
METAR FOR EKYT
ADDS - METARS form results

(2353 UTC 05 July 2020)
Data provider http://aviationweather.gov/metar/data/
 
METAR text: EKYT 052350Z AUTO 26016G26KT 9999 RA FEW014/// SCT025/// BKN033/// BKN050/// 12/10 Q0996
Conditions at: EKYT (ALBORG , DK) observed 2350 UTC 05 July 2020
Temperature: 12.0°C (54°F)
Dewpoint: 10.0°C (50°F) [RH = 88%]
Pressure (altimeter): 29.41 inches Hg (996.0 mb)
Winds: from the W (260 degrees) at 18 MPH (16 knots; 8.2 m/s)
gusting to 30 MPH (26 knots; 13.4 m/s)
Visibility: 6 or more miles (10+ km)
Ceiling: 3300 feet AGL
Clouds: few clouds at 1400 feet AGL
scattered clouds at 2500 feet AGL
broken clouds at 3300 feet AGL
broken clouds at 5000 feet AGL
Weather: RA  (moderate rain)

METAR text: EKYT 052345Z AUTO 25011G23KT 220V280 9999 +SHRA FEW021/// SCT027/// BKN033/// BKN060/// 12/10 Q0997
Conditions at: EKYT (ALBORG , DK) observed 2345 UTC 05 July 2020
Temperature: 12.0°C (54°F)
Dewpoint: 10.0°C (50°F) [RH = 88%]
Pressure (altimeter): 29.44 inches Hg (997.0 mb)
Winds: from the WSW (250 degrees) at 13 MPH (11 knots; 5.7 m/s)
gusting to 26 MPH (23 knots; 11.8 m/s)
Visibility: 6 or more miles (10+ km)
Ceiling: 3300 feet AGL
Clouds: few clouds at 2100 feet AGL
scattered clouds at 2700 feet AGL
broken clouds at 3300 feet AGL
broken clouds at 6000 feet AGL
Weather: +SHRA  (heavy rain showers)

METAR text: EKYT 052337Z AUTO 22013KT 7000 +RA FEW022/// SCT042/// BKN050/// BKN065/// 13/11 Q0996
Conditions at: EKYT (ALBORG , DK) observed 2337 UTC 05 July 2020
Temperature: 13.0°C (55°F)
Dewpoint: 11.0°C (52°F) [RH = 88%]
Pressure (altimeter): 29.41 inches Hg (996.0 mb)
Winds: from the SW (220 degrees) at 15 MPH (13 knots; 6.7 m/s)
Visibility: 4 miles ( 7 km)
Ceiling: 5000 feet AGL
Clouds: few clouds at 2200 feet AGL
scattered clouds at 4200 feet AGL
broken clouds at 5000 feet AGL
broken clouds at 6500 feet AGL
Weather: +RA  (heavy rain)

METAR text: EKYT 052336Z AUTO 22013KT 7000 +RA FEW022/// SCT042/// BKN050/// BKN065/// 13/11 Q0996
Conditions at: EKYT (ALBORG , DK) observed 2336 UTC 05 July 2020
Temperature: 13.0°C (55°F)
Dewpoint: 11.0°C (52°F) [RH = 88%]
Pressure (altimeter): 29.41 inches Hg (996.0 mb)
Winds: from the SW (220 degrees) at 15 MPH (13 knots; 6.7 m/s)
Visibility: 4 miles ( 7 km)
Ceiling: 5000 feet AGL
Clouds: few clouds at 2200 feet AGL
scattered clouds at 4200 feet AGL
broken clouds at 5000 feet AGL
broken clouds at 6500 feet AGL
Weather: +RA  (heavy rain)

METAR text: EKYT 052333Z AUTO 22014KT 9000 +RA FEW028/// BKN050/// BKN065/// 13/11 Q0996
Conditions at: EKYT (ALBORG , DK) observed 2333 UTC 05 July 2020
Temperature: 13.0°C (55°F)
Dewpoint: 11.0°C (52°F) [RH = 88%]
Pressure (altimeter): 29.41 inches Hg (996.0 mb)
Winds: from the SW (220 degrees) at 16 MPH (14 knots; 7.2 m/s)
Visibility: 6 miles ( 9 km)
Ceiling: 5000 feet AGL
Clouds: few clouds at 2800 feet AGL
broken clouds at 5000 feet AGL
broken clouds at 6500 feet AGL
Weather: +RA  (heavy rain)

METAR text: EKYT 052332Z AUTO 22014KT 9000 +RA FEW028/// BKN050/// BKN065/// 13/11 Q0996
Conditions at: EKYT (ALBORG , DK) observed 2332 UTC 05 July 2020
Temperature: 13.0°C (55°F)
Dewpoint: 11.0°C (52°F) [RH = 88%]
Pressure (altimeter): 29.41 inches Hg (996.0 mb)
Winds: from the SW (220 degrees) at 16 MPH (14 knots; 7.2 m/s)
Visibility: 6 miles ( 9 km)
Ceiling: 5000 feet AGL
Clouds: few clouds at 2800 feet AGL
broken clouds at 5000 feet AGL
broken clouds at 6500 feet AGL
Weather: +RA  (heavy rain)

METAR text: EKYT 052331Z AUTO 22014KT 8000 RA FEW028/// BKN050/// BKN065/// 13/11 Q0996
Conditions at: EKYT (ALBORG , DK) observed 2331 UTC 05 July 2020
Temperature: 13.0°C (55°F)
Dewpoint: 11.0°C (52°F) [RH = 88%]
Pressure (altimeter): 29.41 inches Hg (996.0 mb)
Winds: from the SW (220 degrees) at 16 MPH (14 knots; 7.2 m/s)
Visibility: 5 miles ( 8 km)
Ceiling: 5000 feet AGL
Clouds: few clouds at 2800 feet AGL
broken clouds at 5000 feet AGL
broken clouds at 6500 feet AGL
Weather: RA  (moderate rain)

METAR text: EKYT 052330Z AUTO 22014KT 8000 RA FEW028/// BKN050/// BKN065/// 13/11 Q0996
Conditions at: EKYT (ALBORG , DK) observed 2330 UTC 05 July 2020
Temperature: 13.0°C (55°F)
Dewpoint: 11.0°C (52°F) [RH = 88%]
Pressure (altimeter): 29.41 inches Hg (996.0 mb)
Winds: from the SW (220 degrees) at 16 MPH (14 knots; 7.2 m/s)
Visibility: 5 miles ( 8 km)
Ceiling: 5000 feet AGL
Clouds: few clouds at 2800 feet AGL
broken clouds at 5000 feet AGL
broken clouds at 6500 feet AGL
Weather: RA  (moderate rain)

METAR text: EKYT 052324Z AUTO 22014KT 9999 RA FEW033/// BKN050/// BKN070/// 13/11 Q0996
Conditions at: EKYT (ALBORG , DK) observed 2324 UTC 05 July 2020
Temperature: 13.0°C (55°F)
Dewpoint: 11.0°C (52°F) [RH = 88%]
Pressure (altimeter): 29.41 inches Hg (996.0 mb)
Winds: from the SW (220 degrees) at 16 MPH (14 knots; 7.2 m/s)
Visibility: 6 or more miles (10+ km)
Ceiling: 5000 feet AGL
Clouds: few clouds at 3300 feet AGL
broken clouds at 5000 feet AGL
broken clouds at 7000 feet AGL
Weather: RA  (moderate rain)

METAR text: EKYT 052323Z AUTO 22014KT 9999 RA FEW033/// BKN050/// BKN070/// 13/11 Q0996
Conditions at: EKYT (ALBORG , DK) observed 2323 UTC 05 July 2020
Temperature: 13.0°C (55°F)
Dewpoint: 11.0°C (52°F) [RH = 88%]
Pressure (altimeter): 29.41 inches Hg (996.0 mb)
Winds: from the SW (220 degrees) at 16 MPH (14 knots; 7.2 m/s)
Visibility: 6 or more miles (10+ km)
Ceiling: 5000 feet AGL
Clouds: few clouds at 3300 feet AGL
broken clouds at 5000 feet AGL
broken clouds at 7000 feet AGL
Weather: RA  (moderate rain)

METAR text: EKYT 052320Z AUTO 22015KT 9999 FEW027/// BKN050/// BKN070/// 13/11 Q0996
Conditions at: EKYT (ALBORG , DK) observed 2320 UTC 05 July 2020
Temperature: 13.0°C (55°F)
Dewpoint: 11.0°C (52°F) [RH = 88%]
Pressure (altimeter): 29.41 inches Hg (996.0 mb)
Winds: from the SW (220 degrees) at 17 MPH (15 knots; 7.7 m/s)
Visibility: 6 or more miles (10+ km)
Ceiling: 5000 feet AGL
Clouds: few clouds at 2700 feet AGL
broken clouds at 5000 feet AGL
broken clouds at 7000 feet AGL
Weather: no significant weather observed at this time

Forecast for: EKYT (ALBORG , DK)
Text: TAF EKYT 052321Z 0600/0624 25018KT 9999 SCT020 SCT040
Forecast period: 0000 to 0700 UTC 06 July 2020
Forecast type: FROM: standard forecast or significant change
Winds: from the WSW (250 degrees) at 21 MPH (18 knots; 9.3 m/s)
Visibility: 6 or more miles 10+ km)
Ceiling: at least 12,000 feet AGL
Clouds: scattered clouds at 2000 feet AGL
scattered clouds at 4000 feet AGL
Weather: no significant weather forecast for this period
Text: TEMPO 0600/0607 26018G32KT 3000 SHRA BKN015CB
Forecast period: 0000 to 0700 UTC 06 July 2020
Forecast type: TEMPORARY: The following changes expected for less than half the time period
Winds: from the W (260 degrees) at 21 MPH (18 knots; 9.3 m/s)
gusting to 37 MPH (32 knots; 16.5 m/s)
Visibility: 1.86 miles (2.99 km)
Ceiling: 1500 feet AGL
Clouds: broken clouds at 1500 feet AGL
Weather: SHRA  (rain showers)
Text: PROB40
Forecast period: 0000 to 0700 UTC 06 July 2020
Forecast type: TEMPORARY: The following changes expected for less than half the time period
Visibility: missing
Ceiling: unknown
Clouds: missing
Weather: TSRA  (rain associated with thunderstorm(s))
Text: TEMPO 0600/0607 TSRA
Forecast period: 0700 to 1100 UTC 06 July 2020
Forecast type: BECOMING: Conditions expected to become as follows by 0900 UTC 06 July 2020
Winds: from the WSW (250 degrees) at 25 MPH (22 knots; 11.3 m/s)
gusting to 40 MPH (35 knots; 18.0 m/s)
Visibility: 6 or more miles 10+ km)
Ceiling: at least 12,000 feet AGL
Clouds: scattered clouds at 2000 feet AGL
scattered clouds at 4000 feet AGL
Weather: no significant weather forecast for this period
Text: BECMG 0607/0609 25022G35KT
Forecast period: 0900 to 1600 UTC 06 July 2020
Forecast type: TEMPORARY: The following changes expected for less than half the time period
Visibility: 1.86 miles (2.99 km)
Ceiling: 1500 feet AGL
Clouds: broken clouds at 1500 feet AGL
Weather: SHRA  (rain showers)
Text: TEMPO 0609/0616 3000 SHRA BKN015CB
Forecast period: 1100 to 1800 UTC 06 July 2020
Forecast type: BECOMING: Conditions expected to become as follows by 1400 UTC 06 July 2020
Winds: from the W (280 degrees) at 29 MPH (25 knots; 12.9 m/s)
gusting to 48 MPH (42 knots; 21.6 m/s)
Visibility: 6 or more miles 10+ km)
Ceiling: at least 12,000 feet AGL
Clouds: scattered clouds at 2000 feet AGL
scattered clouds at 4000 feet AGL
Weather: no significant weather forecast for this period
Text: BECMG 0611/0614 28025G42KT
Forecast period: 1800 UTC 06 July 2020 to 0000 UTC 07 July 2020
Forecast type: BECOMING: Conditions expected to become as follows by 2100 UTC 06 July 2020
Winds: from the WNW (290 degrees) at 21 MPH (18 knots; 9.3 m/s)
gusting to 37 MPH (32 knots; 16.5 m/s)
Visibility: 6 or more miles 10+ km)
Ceiling: at least 12,000 feet AGL
Clouds: scattered clouds at 2000 feet AGL
scattered clouds at 4000 feet AGL
Weather: no significant weather forecast for this period

 AIRPORT MAP

 RUNWAY INFORMATION
Runway 08L Runway length 8707 ft Runway width 148 ft
Runway elevation 8 ft Runway displaced threshold 0 ft Runway heading 83
Runway 26R Runway length 8707 ft Runway width 148 ft
Runway elevation 10 ft Runway displaced threshold 0 ft Runway heading 263
Runway 08R Runway length 8363 ft Runway width 74 ft
Runway elevation 7 ft Runway displaced threshold 0 ft Runway heading 83
Runway 26L Runway length 8363 ft Runway width 74 ft
Runway elevation 10 ft Runway displaced threshold 0 ft Runway heading 263

 AIRPORT FREQUENCIES
Type APP Name APP Frequency 123.975 MHZ
Type ATIS Name ATIS Frequency 120.475 MHZ
Type MISC Name HANDLING Frequency 131.55 MHZ
Type TWR Name TWR Frequency 118.3 MHZ

 AIRPORT NEAR NAVIGATION AIDS
Type TACAN Name Aalborg Frequency 116700 KHZ
Type VOR-DME Name Aalborg Frequency 116700 KHZ
Type NDB Name Aalborg Frequency 398 KHZ



Powered by Virtual Airlines Manager [v2.6.2]